sensor_id;sensor_type;location;lat;lon;timestamp;P1;durP1;ratioP1;P2;durP2;ratioP2
20609;SDS011;10463;52.378;9.688;2022-07-22T00:01:25;5.00;;;4.60;;
20609;SDS011;10463;52.378;9.688;2022-07-22T00:04:11;5.27;;;4.77;;
20609;SDS011;10463;52.378;9.688;2022-07-22T00:06:56;6.50;;;4.80;;
20609;SDS011;10463;52.378;9.688;2022-07-22T00:09:41;5.20;;;4.70;;
20609;SDS011;10463;52.378;9.688;2022-07-22T00:12:26;5.33;;;4.83;;
20609;SDS011;10463;52.378;9.688;2022-07-22T00:15:11;5.30;;;4.80;;
20609;SDS011;10463;52.378;9.688;2022-07-22T00:17:56;5.87;;;5.37;;
20609;SDS011;10463;52.378;9.688;2022-07-22T00:20:43;5.20;;;4.70;;
20609;SDS011;10463;52.378;9.688;2022-07-22T00:23:27;5.57;;;5.07;;
20609;SDS011;10463;52.378;9.688;2022-07-22T00:26:14;5.23;;;4.27;;
20609;SDS011;10463;52.378;9.688;2022-07-22T00:28:58;4.97;;;4.57;;
20609;SDS011;10463;52.378;9.688;2022-07-22T00:31:44;5.70;;;5.10;;
20609;SDS011;10463;52.378;9.688;2022-07-22T00:34:29;5.00;;;4.60;;
20609;SDS011;10463;52.378;9.688;2022-07-22T00:37:16;5.37;;;4.80;;
20609;SDS011;10463;52.378;9.688;2022-07-22T00:40:01;6.97;;;5.13;;
20609;SDS011;10463;52.378;9.688;2022-07-22T00:42:46;5.67;;;5.17;;
20609;SDS011;10463;52.378;9.688;2022-07-22T00:45:32;5.70;;;5.30;;
20609;SDS011;10463;52.378;9.688;2022-07-22T00:48:17;6.00;;;5.50;;
20609;SDS011;10463;52.378;9.688;2022-07-22T00:51:01;5.90;;;5.30;;
20609;SDS011;10463;52.378;9.688;2022-07-22T00:53:48;6.00;;;5.50;;
20609;SDS011;10463;52.378;9.688;2022-07-22T00:56:33;5.77;;;5.27;;
20609;SDS011;10463;52.378;9.688;2022-07-22T00:59:19;6.33;;;5.73;;
20609;SDS011;10463;52.378;9.688;2022-07-22T01:02:05;5.13;;;4.37;;
20609;SDS011;10463;52.378;9.688;2022-07-22T01:04:50;6.53;;;5.00;;
20609;SDS011;10463;52.378;9.688;2022-07-22T01:07:36;4.53;;;4.13;;
20609;SDS011;10463;52.378;9.688;2022-07-22T01:10:22;4.80;;;4.40;;
20609;SDS011;10463;52.378;9.688;2022-07-22T01:13:07;6.80;;;5.23;;
20609;SDS011;10463;52.378;9.688;2022-07-22T01:15:52;5.40;;;4.90;;
20609;SDS011;10463;52.378;9.688;2022-07-22T01:18:38;5.37;;;4.77;;
20609;SDS011;10463;52.378;9.688;2022-07-22T01:21:25;4.87;;;4.40;;
20609;SDS011;10463;52.378;9.688;2022-07-22T01:24:10;6.13;;;4.63;;
20609;SDS011;10463;52.378;9.688;2022-07-22T01:26:56;4.83;;;4.43;;
20609;SDS011;10463;52.378;9.688;2022-07-22T01:29:40;4.47;;;4.07;;
20609;SDS011;10463;52.378;9.688;2022-07-22T01:32:25;8.50;;;5.10;;
20609;SDS011;10463;52.378;9.688;2022-07-22T01:35:10;5.03;;;4.47;;
20609;SDS011;10463;52.378;9.688;2022-07-22T01:37:56;5.87;;;5.20;;
20609;SDS011;10463;52.378;9.688;2022-07-22T01:40:43;5.27;;;4.80;;
20609;SDS011;10463;52.378;9.688;2022-07-22T01:43:30;6.17;;;5.60;;
20609;SDS011;10463;52.378;9.688;2022-07-22T01:46:15;5.60;;;5.10;;
20609;SDS011;10463;52.378;9.688;2022-07-22T01:49:01;5.60;;;5.10;;
20609;SDS011;10463;52.378;9.688;2022-07-22T01:51:51;5.13;;;4.73;;
20609;SDS011;10463;52.378;9.688;2022-07-22T01:54:37;4.67;;;4.13;;
20609;SDS011;10463;52.378;9.688;2022-07-22T01:57:22;5.30;;;4.80;;
20609;SDS011;10463;52.378;9.688;2022-07-22T02:00:10;4.33;;;4.00;;
20609;SDS011;10463;52.378;9.688;2022-07-22T02:03:00;4.57;;;2.97;;
20609;SDS011;10463;52.378;9.688;2022-07-22T02:05:45;3.67;;;2.70;;
20609;SDS011;10463;52.378;9.688;2022-07-22T02:08:38;3.70;;;3.07;;
20609;SDS011;10463;52.378;9.688;2022-07-22T02:11:30;2.60;;;2.40;;
20609;SDS011;10463;52.378;9.688;2022-07-22T02:14:17;2.50;;;2.10;;
20609;SDS011;10463;52.378;9.688;2022-07-22T02:17:01;2.30;;;2.03;;
20609;SDS011;10463;52.378;9.688;2022-07-22T02:19:46;3.70;;;2.53;;
20609;SDS011;10463;52.378;9.688;2022-07-22T02:22:31;2.47;;;1.90;;
20609;SDS011;10463;52.378;9.688;2022-07-22T02:25:16;2.40;;;2.17;;
20609;SDS011;10463;52.378;9.688;2022-07-22T02:28:03;2.23;;;1.50;;
20609;SDS011;10463;52.378;9.688;2022-07-22T02:30:49;2.23;;;1.53;;
20609;SDS011;10463;52.378;9.688;2022-07-22T02:33:35;2.37;;;1.93;;
20609;SDS011;10463;52.378;9.688;2022-07-22T02:36:20;2.60;;;2.20;;
20609;SDS011;10463;52.378;9.688;2022-07-22T02:39:05;2.53;;;2.20;;
20609;SDS011;10463;52.378;9.688;2022-07-22T02:41:50;3.23;;;2.17;;
20609;SDS011;10463;52.378;9.688;2022-07-22T02:44:37;4.80;;;2.50;;
20609;SDS011;10463;52.378;9.688;2022-07-22T02:47:23;3.60;;;2.10;;
20609;SDS011;10463;52.378;9.688;2022-07-22T02:50:07;3.03;;;2.47;;
20609;SDS011;10463;52.378;9.688;2022-07-22T02:52:53;2.90;;;2.20;;
20609;SDS011;10463;52.378;9.688;2022-07-22T02:55:41;3.20;;;2.23;;
20609;SDS011;10463;52.378;9.688;2022-07-22T02:58:27;2.70;;;1.90;;
20609;SDS011;10463;52.378;9.688;2022-07-22T03:01:14;2.03;;;1.63;;
20609;SDS011;10463;52.378;9.688;2022-07-22T03:04:06;2.50;;;1.70;;
20609;SDS011;10463;52.378;9.688;2022-07-22T03:06:54;2.80;;;2.00;;
20609;SDS011;10463;52.378;9.688;2022-07-22T03:09:40;3.30;;;1.80;;
20609;SDS011;10463;52.378;9.688;2022-07-22T03:12:26;2.53;;;1.90;;
20609;SDS011;10463;52.378;9.688;2022-07-22T03:15:13;3.70;;;2.33;;
20609;SDS011;10463;52.378;9.688;2022-07-22T03:17:59;2.70;;;1.90;;
20609;SDS011;10463;52.378;9.688;2022-07-22T03:20:45;2.67;;;2.07;;
20609;SDS011;10463;52.378;9.688;2022-07-22T03:23:30;5.13;;;2.03;;
20609;SDS011;10463;52.378;9.688;2022-07-22T03:26:16;2.73;;;2.13;;
20609;SDS011;10463;52.378;9.688;2022-07-22T03:29:01;3.00;;;2.70;;
20609;SDS011;10463;52.378;9.688;2022-07-22T03:31:47;3.67;;;2.93;;
20609;SDS011;10463;52.378;9.688;2022-07-22T03:34:34;3.20;;;2.80;;
20609;SDS011;10463;52.378;9.688;2022-07-22T03:37:23;3.50;;;3.10;;
20609;SDS011;10463;52.378;9.688;2022-07-22T03:40:09;4.13;;;3.33;;
20609;SDS011;10463;52.378;9.688;2022-07-22T03:42:56;3.30;;;2.90;;
20609;SDS011;10463;52.378;9.688;2022-07-22T03:45:40;4.97;;;3.37;;
20609;SDS011;10463;52.378;9.688;2022-07-22T03:48:27;4.37;;;3.20;;
20609;SDS011;10463;52.378;9.688;2022-07-22T03:51:14;3.43;;;3.07;;
20609;SDS011;10463;52.378;9.688;2022-07-22T03:53:59;3.53;;;2.77;;
20609;SDS011;10463;52.378;9.688;2022-07-22T03:56:44;3.20;;;2.57;;
20609;SDS011;10463;52.378;9.688;2022-07-22T03:59:28;4.40;;;2.63;;
20609;SDS011;10463;52.378;9.688;2022-07-22T04:02:13;2.90;;;2.47;;
20609;SDS011;10463;52.378;9.688;2022-07-22T04:04:58;3.07;;;2.40;;
20609;SDS011;10463;52.378;9.688;2022-07-22T04:07:44;3.30;;;3.00;;
20609;SDS011;10463;52.378;9.688;2022-07-22T04:10:29;3.87;;;2.80;;
20609;SDS011;10463;52.378;9.688;2022-07-22T04:13:16;3.30;;;3.00;;
20609;SDS011;10463;52.378;9.688;2022-07-22T04:16:11;4.43;;;3.97;;
20609;SDS011;10463;52.378;9.688;2022-07-22T04:19:04;3.57;;;3.20;;
20609;SDS011;10463;52.378;9.688;2022-07-22T04:22:02;5.17;;;3.60;;
20609;SDS011;10463;52.378;9.688;2022-07-22T04:24:49;4.30;;;3.63;;
20609;SDS011;10463;52.378;9.688;2022-07-22T04:27:35;5.80;;;3.93;;
20609;SDS011;10463;52.378;9.688;2022-07-22T04:30:20;4.70;;;4.00;;
20609;SDS011;10463;52.378;9.688;2022-07-22T04:33:08;3.63;;;3.33;;
20609;SDS011;10463;52.378;9.688;2022-07-22T04:35:54;4.40;;;3.80;;
20609;SDS011;10463;52.378;9.688;2022-07-22T04:38:39;3.97;;;3.33;;
20609;SDS011;10463;52.378;9.688;2022-07-22T04:41:28;3.60;;;3.10;;
20609;SDS011;10463;52.378;9.688;2022-07-22T04:44:13;3.30;;;2.97;;
20609;SDS011;10463;52.378;9.688;2022-07-22T04:46:57;5.50;;;3.10;;
20609;SDS011;10463;52.378;9.688;2022-07-22T04:49:43;4.50;;;2.80;;
20609;SDS011;10463;52.378;9.688;2022-07-22T04:52:28;2.70;;;2.20;;
20609;SDS011;10463;52.378;9.688;2022-07-22T04:55:14;3.63;;;2.70;;
20609;SDS011;10463;52.378;9.688;2022-07-22T04:58:00;3.47;;;3.17;;
20609;SDS011;10463;52.378;9.688;2022-07-22T05:00:45;3.47;;;3.00;;
20609;SDS011;10463;52.378;9.688;2022-07-22T05:03:30;3.60;;;3.30;;
20609;SDS011;10463;52.378;9.688;2022-07-22T05:06:16;4.33;;;3.63;;
20609;SDS011;10463;52.378;9.688;2022-07-22T05:09:02;4.50;;;4.10;;
20609;SDS011;10463;52.378;9.688;2022-07-22T05:11:49;11.27;;;4.50;;
20609;SDS011;10463;52.378;9.688;2022-07-22T05:14:37;4.50;;;4.10;;
20609;SDS011;10463;52.378;9.688;2022-07-22T05:17:22;5.10;;;4.10;;
20609;SDS011;10463;52.378;9.688;2022-07-22T05:20:32;4.23;;;3.93;;
20609;SDS011;10463;52.378;9.688;2022-07-22T05:23:16;4.67;;;4.27;;
20609;SDS011;10463;52.378;9.688;2022-07-22T05:26:01;5.00;;;4.33;;
20609;SDS011;10463;52.378;9.688;2022-07-22T05:28:48;5.43;;;4.53;;
20609;SDS011;10463;52.378;9.688;2022-07-22T05:31:34;7.00;;;5.47;;
20609;SDS011;10463;52.378;9.688;2022-07-22T05:34:21;5.60;;;5.10;;
20609;SDS011;10463;52.378;9.688;2022-07-22T05:37:10;5.60;;;4.80;;
20609;SDS011;10463;52.378;9.688;2022-07-22T05:39:55;6.20;;;5.60;;
20609;SDS011;10463;52.378;9.688;2022-07-22T05:42:41;5.77;;;4.87;;
20609;SDS011;10463;52.378;9.688;2022-07-22T05:45:25;7.03;;;5.57;;
20609;SDS011;10463;52.378;9.688;2022-07-22T05:48:12;6.83;;;5.40;;
20609;SDS011;10463;52.378;9.688;2022-07-22T05:50:57;6.80;;;5.00;;
20609;SDS011;10463;52.378;9.688;2022-07-22T05:53:42;5.40;;;4.90;;
20609;SDS011;10463;52.378;9.688;2022-07-22T05:56:28;5.90;;;4.70;;
20609;SDS011;10463;52.378;9.688;2022-07-22T05:59:12;5.60;;;4.73;;
20609;SDS011;10463;52.378;9.688;2022-07-22T06:01:57;6.60;;;5.13;;
20609;SDS011;10463;52.378;9.688;2022-07-22T06:05:06;5.57;;;4.40;;
20609;SDS011;10463;52.378;9.688;2022-07-22T06:07:51;6.97;;;4.67;;
20609;SDS011;10463;52.378;9.688;2022-07-22T06:10:56;7.13;;;4.03;;
20609;SDS011;10463;52.378;9.688;2022-07-22T06:13:41;6.10;;;4.20;;
20609;SDS011;10463;52.378;9.688;2022-07-22T06:16:26;3.93;;;3.50;;
20609;SDS011;10463;52.378;9.688;2022-07-22T06:19:15;4.23;;;3.83;;
20609;SDS011;10463;52.378;9.688;2022-07-22T06:22:01;6.33;;;4.23;;
20609;SDS011;10463;52.378;9.688;2022-07-22T06:24:46;3.97;;;3.47;;
20609;SDS011;10463;52.378;9.688;2022-07-22T06:27:31;4.00;;;3.60;;
20609;SDS011;10463;52.378;9.688;2022-07-22T06:30:17;4.00;;;3.27;;
20609;SDS011;10463;52.378;9.688;2022-07-22T06:33:04;4.13;;;3.73;;
20609;SDS011;10463;52.378;9.688;2022-07-22T06:35:49;6.73;;;3.63;;
20609;SDS011;10463;52.378;9.688;2022-07-22T06:38:36;2.97;;;2.70;;
20609;SDS011;10463;52.378;9.688;2022-07-22T06:41:40;4.33;;;3.20;;
20609;SDS011;10463;52.378;9.688;2022-07-22T06:44:39;4.70;;;3.17;;
20609;SDS011;10463;52.378;9.688;2022-07-22T06:47:40;3.47;;;3.00;;
20609;SDS011;10463;52.378;9.688;2022-07-22T06:50:27;4.30;;;3.10;;
20609;SDS011;10463;52.378;9.688;2022-07-22T06:53:12;6.03;;;3.47;;
20609;SDS011;10463;52.378;9.688;2022-07-22T06:56:00;3.53;;;2.70;;
20609;SDS011;10463;52.378;9.688;2022-07-22T06:58:44;4.33;;;2.80;;
20609;SDS011;10463;52.378;9.688;2022-07-22T07:01:30;3.70;;;3.27;;
20609;SDS011;10463;52.378;9.688;2022-07-22T07:04:18;5.07;;;2.80;;
20609;SDS011;10463;52.378;9.688;2022-07-22T07:07:03;4.70;;;2.90;;
20609;SDS011;10463;52.378;9.688;2022-07-22T07:09:51;4.93;;;3.30;;
20609;SDS011;10463;52.378;9.688;2022-07-22T07:12:45;3.27;;;2.43;;
20609;SDS011;10463;52.378;9.688;2022-07-22T07:15:39;3.63;;;3.23;;
20609;SDS011;10463;52.378;9.688;2022-07-22T07:18:25;4.60;;;3.90;;
20609;SDS011;10463;52.378;9.688;2022-07-22T07:21:10;4.27;;;3.87;;
20609;SDS011;10463;52.378;9.688;2022-07-22T07:23:55;3.67;;;3.37;;
20609;SDS011;10463;52.378;9.688;2022-07-22T07:26:42;4.20;;;3.40;;
20609;SDS011;10463;52.378;9.688;2022-07-22T07:29:28;4.20;;;3.30;;
20609;SDS011;10463;52.378;9.688;2022-07-22T07:32:14;4.60;;;3.50;;
20609;SDS011;10463;52.378;9.688;2022-07-22T07:34:58;3.90;;;3.60;;
20609;SDS011;10463;52.378;9.688;2022-07-22T07:37:43;7.17;;;3.37;;
20609;SDS011;10463;52.378;9.688;2022-07-22T07:40:28;5.10;;;3.03;;
20609;SDS011;10463;52.378;9.688;2022-07-22T07:43:13;6.20;;;3.33;;
20609;SDS011;10463;52.378;9.688;2022-07-22T07:45:59;3.20;;;2.83;;
20609;SDS011;10463;52.378;9.688;2022-07-22T07:48:44;3.80;;;2.67;;
20609;SDS011;10463;52.378;9.688;2022-07-22T07:51:29;3.77;;;2.90;;
20609;SDS011;10463;52.378;9.688;2022-07-22T07:54:14;3.33;;;2.20;;
20609;SDS011;10463;52.378;9.688;2022-07-22T07:57:00;4.70;;;2.73;;
20609;SDS011;10463;52.378;9.688;2022-07-22T07:59:44;4.00;;;2.20;;
20609;SDS011;10463;52.378;9.688;2022-07-22T08:02:30;3.00;;;2.20;;
20609;SDS011;10463;52.378;9.688;2022-07-22T08:05:15;4.63;;;2.23;;
20609;SDS011;10463;52.378;9.688;2022-07-22T08:08:00;3.83;;;2.00;;
20609;SDS011;10463;52.378;9.688;2022-07-22T08:10:46;2.97;;;1.90;;
20609;SDS011;10463;52.378;9.688;2022-07-22T08:13:50;3.90;;;2.00;;
20609;SDS011;10463;52.378;9.688;2022-07-22T08:17:00;2.67;;;1.87;;
20609;SDS011;10463;52.378;9.688;2022-07-22T08:19:47;3.10;;;2.00;;
20609;SDS011;10463;52.378;9.688;2022-07-22T08:22:32;4.33;;;2.27;;
20609;SDS011;10463;52.378;9.688;2022-07-22T08:25:17;3.40;;;2.30;;
20609;SDS011;10463;52.378;9.688;2022-07-22T08:28:03;3.83;;;2.77;;
20609;SDS011;10463;52.378;9.688;2022-07-22T08:30:48;2.63;;;2.07;;
20609;SDS011;10463;52.378;9.688;2022-07-22T08:33:33;6.00;;;2.20;;
20609;SDS011;10463;52.378;9.688;2022-07-22T08:36:20;4.70;;;2.30;;
20609;SDS011;10463;52.378;9.688;2022-07-22T08:39:05;4.60;;;2.70;;
20609;SDS011;10463;52.378;9.688;2022-07-22T08:41:52;3.40;;;2.30;;
20609;SDS011;10463;52.378;9.688;2022-07-22T08:44:40;3.50;;;2.87;;
20609;SDS011;10463;52.378;9.688;2022-07-22T08:47:25;5.53;;;2.57;;
20609;SDS011;10463;52.378;9.688;2022-07-22T08:50:29;7.60;;;3.23;;
20609;SDS011;10463;52.378;9.688;2022-07-22T08:53:29;5.57;;;3.40;;
20609;SDS011;10463;52.378;9.688;2022-07-22T08:56:19;4.10;;;3.33;;
20609;SDS011;10463;52.378;9.688;2022-07-22T08:59:04;3.50;;;2.73;;
20609;SDS011;10463;52.378;9.688;2022-07-22T09:02:04;3.67;;;2.80;;
20609;SDS011;10463;52.378;9.688;2022-07-22T09:04:56;2.97;;;2.20;;
20609;SDS011;10463;52.378;9.688;2022-07-22T09:07:45;5.13;;;2.80;;
20609;SDS011;10463;52.378;9.688;2022-07-22T09:10:44;3.70;;;2.10;;
20609;SDS011;10463;52.378;9.688;2022-07-22T09:13:48;5.63;;;2.93;;
20609;SDS011;10463;52.378;9.688;2022-07-22T09:16:55;4.47;;;3.23;;
20609;SDS011;10463;52.378;9.688;2022-07-22T09:20:17;5.33;;;2.83;;
20609;SDS011;10463;52.378;9.688;2022-07-22T09:23:21;5.90;;;3.13;;
20609;SDS011;10463;52.378;9.688;2022-07-22T09:29:34;5.40;;;2.87;;
20609;SDS011;10463;52.378;9.688;2022-07-22T09:32:38;5.97;;;3.03;;
20609;SDS011;10463;52.378;9.688;2022-07-22T09:35:39;6.13;;;2.73;;
20609;SDS011;10463;52.378;9.688;2022-07-22T09:38:27;4.30;;;3.03;;
20609;SDS011;10463;52.378;9.688;2022-07-22T09:41:16;4.40;;;2.90;;
20609;SDS011;10463;52.378;9.688;2022-07-22T09:44:20;3.07;;;2.60;;
20609;SDS011;10463;52.378;9.688;2022-07-22T09:47:06;3.80;;;3.00;;
20609;SDS011;10463;52.378;9.688;2022-07-22T09:50:29;6.63;;;3.33;;
20609;SDS011;10463;52.378;9.688;2022-07-22T09:53:47;5.33;;;2.73;;
20609;SDS011;10463;52.378;9.688;2022-07-22T09:56:38;3.53;;;2.63;;
20609;SDS011;10463;52.378;9.688;2022-07-22T09:59:23;6.33;;;3.80;;
20609;SDS011;10463;52.378;9.688;2022-07-22T10:02:16;6.70;;;3.77;;
20609;SDS011;10463;52.378;9.688;2022-07-22T10:05:02;6.13;;;3.30;;
20609;SDS011;10463;52.378;9.688;2022-07-22T10:07:49;3.87;;;3.23;;
20609;SDS011;10463;52.378;9.688;2022-07-22T10:10:36;4.13;;;2.70;;
20609;SDS011;10463;52.378;9.688;2022-07-22T10:13:23;4.70;;;3.03;;
20609;SDS011;10463;52.378;9.688;2022-07-22T10:16:08;2.93;;;2.73;;
20609;SDS011;10463;52.378;9.688;2022-07-22T10:18:54;4.03;;;2.70;;
20609;SDS011;10463;52.378;9.688;2022-07-22T10:21:40;7.93;;;3.27;;
20609;SDS011;10463;52.378;9.688;2022-07-22T10:24:26;4.30;;;2.90;;
20609;SDS011;10463;52.378;9.688;2022-07-22T10:27:35;3.60;;;3.23;;
20609;SDS011;10463;52.378;9.688;2022-07-22T10:30:31;4.00;;;2.40;;
20609;SDS011;10463;52.378;9.688;2022-07-22T10:33:18;3.10;;;2.70;;
20609;SDS011;10463;52.378;9.688;2022-07-22T10:36:05;4.63;;;3.07;;
20609;SDS011;10463;52.378;9.688;2022-07-22T10:39:02;6.00;;;2.73;;
20609;SDS011;10463;52.378;9.688;2022-07-22T10:41:49;4.17;;;3.27;;
20609;SDS011;10463;52.378;9.688;2022-07-22T10:44:47;4.17;;;2.80;;
20609;SDS011;10463;52.378;9.688;2022-07-22T10:47:59;5.00;;;2.87;;
20609;SDS011;10463;52.378;9.688;2022-07-22T10:50:47;4.63;;;2.87;;
20609;SDS011;10463;52.378;9.688;2022-07-22T10:53:42;5.10;;;2.60;;
20609;SDS011;10463;52.378;9.688;2022-07-22T10:56:30;5.30;;;2.70;;
20609;SDS011;10463;52.378;9.688;2022-07-22T10:59:16;2.73;;;2.40;;
20609;SDS011;10463;52.378;9.688;2022-07-22T11:02:03;3.13;;;2.50;;
20609;SDS011;10463;52.378;9.688;2022-07-22T11:04:50;4.03;;;2.90;;
20609;SDS011;10463;52.378;9.688;2022-07-22T11:07:40;3.43;;;2.63;;
20609;SDS011;10463;52.378;9.688;2022-07-22T11:10:25;3.40;;;2.27;;
20609;SDS011;10463;52.378;9.688;2022-07-22T11:13:10;3.57;;;2.73;;
20609;SDS011;10463;52.378;9.688;2022-07-22T11:15:55;3.80;;;2.43;;
20609;SDS011;10463;52.378;9.688;2022-07-22T11:18:51;3.60;;;2.40;;
20609;SDS011;10463;52.378;9.688;2022-07-22T11:21:39;5.80;;;2.90;;
20609;SDS011;10463;52.378;9.688;2022-07-22T11:24:24;2.73;;;2.20;;
20609;SDS011;10463;52.378;9.688;2022-07-22T11:27:13;3.40;;;2.20;;
20609;SDS011;10463;52.378;9.688;2022-07-22T11:29:59;4.40;;;2.40;;
20609;SDS011;10463;52.378;9.688;2022-07-22T11:32:44;3.97;;;2.47;;
20609;SDS011;10463;52.378;9.688;2022-07-22T11:35:29;4.10;;;2.30;;
20609;SDS011;10463;52.378;9.688;2022-07-22T11:38:15;4.03;;;2.60;;
20609;SDS011;10463;52.378;9.688;2022-07-22T11:41:01;3.13;;;2.80;;
20609;SDS011;10463;52.378;9.688;2022-07-22T11:43:48;2.90;;;2.53;;
20609;SDS011;10463;52.378;9.688;2022-07-22T11:46:35;5.27;;;3.47;;
20609;SDS011;10463;52.378;9.688;2022-07-22T11:49:21;4.17;;;2.97;;
20609;SDS011;10463;52.378;9.688;2022-07-22T11:52:09;3.50;;;2.20;;
20609;SDS011;10463;52.378;9.688;2022-07-22T11:54:59;4.40;;;2.30;;
20609;SDS011;10463;52.378;9.688;2022-07-22T11:57:46;4.40;;;2.80;;
20609;SDS011;10463;52.378;9.688;2022-07-22T12:00:31;3.33;;;2.70;;
20609;SDS011;10463;52.378;9.688;2022-07-22T12:03:16;4.00;;;3.23;;
20609;SDS011;10463;52.378;9.688;2022-07-22T12:06:02;3.27;;;2.50;;
20609;SDS011;10463;52.378;9.688;2022-07-22T12:08:50;5.73;;;3.20;;
20609;SDS011;10463;52.378;9.688;2022-07-22T12:11:39;3.23;;;2.93;;
20609;SDS011;10463;52.378;9.688;2022-07-22T12:14:27;6.77;;;2.57;;
20609;SDS011;10463;52.378;9.688;2022-07-22T12:17:13;5.60;;;3.33;;
20609;SDS011;10463;52.378;9.688;2022-07-22T12:20:09;3.50;;;2.30;;
20609;SDS011;10463;52.378;9.688;2022-07-22T12:22:56;3.50;;;2.50;;
20609;SDS011;10463;52.378;9.688;2022-07-22T12:25:52;3.20;;;2.23;;
20609;SDS011;10463;52.378;9.688;2022-07-22T12:28:40;3.40;;;2.83;;
20609;SDS011;10463;52.378;9.688;2022-07-22T12:31:25;3.63;;;3.10;;
20609;SDS011;10463;52.378;9.688;2022-07-22T12:34:10;4.93;;;2.77;;
20609;SDS011;10463;52.378;9.688;2022-07-22T12:36:56;2.93;;;2.60;;
20609;SDS011;10463;52.378;9.688;2022-07-22T12:39:52;3.50;;;2.67;;
20609;SDS011;10463;52.378;9.688;2022-07-22T12:42:41;3.60;;;2.57;;
20609;SDS011;10463;52.378;9.688;2022-07-22T12:45:29;3.03;;;2.43;;
20609;SDS011;10463;52.378;9.688;2022-07-22T12:48:15;5.73;;;2.37;;
20609;SDS011;10463;52.378;9.688;2022-07-22T12:51:02;4.30;;;2.50;;
20609;SDS011;10463;52.378;9.688;2022-07-22T12:53:47;4.00;;;2.83;;
20609;SDS011;10463;52.378;9.688;2022-07-22T12:56:32;3.33;;;2.83;;
20609;SDS011;10463;52.378;9.688;2022-07-22T12:59:17;3.77;;;2.90;;
20609;SDS011;10463;52.378;9.688;2022-07-22T13:02:04;4.93;;;2.73;;
20609;SDS011;10463;52.378;9.688;2022-07-22T13:04:48;4.60;;;3.20;;
20609;SDS011;10463;52.378;9.688;2022-07-22T13:07:33;3.23;;;2.90;;
20609;SDS011;10463;52.378;9.688;2022-07-22T13:10:18;2.80;;;2.23;;
20609;SDS011;10463;52.378;9.688;2022-07-22T13:13:03;8.33;;;3.30;;
20609;SDS011;10463;52.378;9.688;2022-07-22T13:15:48;3.40;;;2.67;;
20609;SDS011;10463;52.378;9.688;2022-07-22T13:18:35;3.20;;;2.80;;
20609;SDS011;10463;52.378;9.688;2022-07-22T13:21:19;3.10;;;2.30;;
20609;SDS011;10463;52.378;9.688;2022-07-22T13:24:05;3.63;;;2.63;;
20609;SDS011;10463;52.378;9.688;2022-07-22T13:26:50;3.17;;;2.27;;
20609;SDS011;10463;52.378;9.688;2022-07-22T13:29:35;3.20;;;2.60;;
20609;SDS011;10463;52.378;9.688;2022-07-22T13:32:20;3.53;;;2.67;;
20609;SDS011;10463;52.378;9.688;2022-07-22T13:35:06;2.83;;;2.33;;
20609;SDS011;10463;52.378;9.688;2022-07-22T13:37:53;4.10;;;2.80;;
20609;SDS011;10463;52.378;9.688;2022-07-22T13:40:37;2.77;;;2.43;;
20609;SDS011;10463;52.378;9.688;2022-07-22T13:43:23;6.47;;;2.40;;
20609;SDS011;10463;52.378;9.688;2022-07-22T13:46:09;5.33;;;3.30;;
20609;SDS011;10463;52.378;9.688;2022-07-22T13:48:54;3.70;;;3.03;;
20609;SDS011;10463;52.378;9.688;2022-07-22T13:51:40;3.87;;;3.30;;
20609;SDS011;10463;52.378;9.688;2022-07-22T13:54:25;3.37;;;2.50;;
20609;SDS011;10463;52.378;9.688;2022-07-22T13:57:10;5.40;;;3.03;;
20609;SDS011;10463;52.378;9.688;2022-07-22T13:59:57;3.60;;;2.90;;
20609;SDS011;10463;52.378;9.688;2022-07-22T14:02:43;5.33;;;3.60;;
20609;SDS011;10463;52.378;9.688;2022-07-22T14:05:28;4.10;;;2.87;;
20609;SDS011;10463;52.378;9.688;2022-07-22T14:08:14;4.37;;;3.20;;
20609;SDS011;10463;52.378;9.688;2022-07-22T14:10:59;4.90;;;3.77;;
20609;SDS011;10463;52.378;9.688;2022-07-22T14:13:43;3.87;;;3.43;;
20609;SDS011;10463;52.378;9.688;2022-07-22T14:16:28;4.80;;;3.20;;
20609;SDS011;10463;52.378;9.688;2022-07-22T14:19:19;4.63;;;3.73;;
20609;SDS011;10463;52.378;9.688;2022-07-22T14:22:04;3.80;;;3.30;;
20609;SDS011;10463;52.378;9.688;2022-07-22T14:24:50;3.57;;;2.97;;
20609;SDS011;10463;52.378;9.688;2022-07-22T14:27:35;4.63;;;3.00;;
20609;SDS011;10463;52.378;9.688;2022-07-22T14:30:20;3.73;;;3.37;;
20609;SDS011;10463;52.378;9.688;2022-07-22T14:33:05;4.23;;;3.20;;
20609;SDS011;10463;52.378;9.688;2022-07-22T14:35:50;4.50;;;3.10;;
20609;SDS011;10463;52.378;9.688;2022-07-22T14:38:35;4.23;;;3.13;;
20609;SDS011;10463;52.378;9.688;2022-07-22T14:41:21;4.53;;;3.70;;
20609;SDS011;10463;52.378;9.688;2022-07-22T14:44:06;5.37;;;3.00;;
20609;SDS011;10463;52.378;9.688;2022-07-22T14:46:51;5.53;;;3.47;;
20609;SDS011;10463;52.378;9.688;2022-07-22T14:49:36;6.30;;;3.30;;
20609;SDS011;10463;52.378;9.688;2022-07-22T14:52:20;4.10;;;3.40;;
20609;SDS011;10463;52.378;9.688;2022-07-22T14:55:05;3.43;;;2.80;;
20609;SDS011;10463;52.378;9.688;2022-07-22T14:57:52;3.40;;;3.10;;
20609;SDS011;10463;52.378;9.688;2022-07-22T15:00:37;3.60;;;2.70;;
20609;SDS011;10463;52.378;9.688;2022-07-22T15:03:22;4.90;;;3.53;;
20609;SDS011;10463;52.378;9.688;2022-07-22T15:06:07;6.87;;;3.90;;
20609;SDS011;10463;52.378;9.688;2022-07-22T15:08:52;5.37;;;4.00;;
20609;SDS011;10463;52.378;9.688;2022-07-22T15:11:36;5.00;;;3.80;;
20609;SDS011;10463;52.378;9.688;2022-07-22T15:14:23;9.20;;;3.97;;
20609;SDS011;10463;52.378;9.688;2022-07-22T15:17:08;4.20;;;3.37;;
20609;SDS011;10463;52.378;9.688;2022-07-22T15:19:52;3.70;;;3.37;;
20609;SDS011;10463;52.378;9.688;2022-07-22T15:22:37;8.20;;;4.57;;
20609;SDS011;10463;52.378;9.688;2022-07-22T15:25:22;4.77;;;3.73;;
20609;SDS011;10463;52.378;9.688;2022-07-22T15:28:07;4.13;;;3.30;;
20609;SDS011;10463;52.378;9.688;2022-07-22T15:30:55;5.33;;;3.63;;
20609;SDS011;10463;52.378;9.688;2022-07-22T15:33:40;7.30;;;3.23;;
20609;SDS011;10463;52.378;9.688;2022-07-22T15:36:25;3.70;;;3.40;;
20609;SDS011;10463;52.378;9.688;2022-07-22T15:39:10;4.50;;;3.57;;
20609;SDS011;10463;52.378;9.688;2022-07-22T15:41:55;4.83;;;3.20;;
20609;SDS011;10463;52.378;9.688;2022-07-22T15:44:40;3.80;;;3.23;;
20609;SDS011;10463;52.378;9.688;2022-07-22T15:47:27;3.80;;;3.30;;
20609;SDS011;10463;52.378;9.688;2022-07-22T15:50:12;6.00;;;4.00;;
20609;SDS011;10463;52.378;9.688;2022-07-22T15:52:56;3.97;;;3.57;;
20609;SDS011;10463;52.378;9.688;2022-07-22T15:55:41;4.73;;;3.30;;
20609;SDS011;10463;52.378;9.688;2022-07-22T15:58:26;5.43;;;3.40;;
20609;SDS011;10463;52.378;9.688;2022-07-22T16:01:30;5.90;;;3.70;;
20609;SDS011;10463;52.378;9.688;2022-07-22T16:04:16;6.97;;;3.80;;
20609;SDS011;10463;52.378;9.688;2022-07-22T16:07:00;4.87;;;3.73;;
20609;SDS011;10463;52.378;9.688;2022-07-22T16:09:46;4.07;;;2.93;;
20609;SDS011;10463;52.378;9.688;2022-07-22T16:12:33;4.60;;;3.80;;
20609;SDS011;10463;52.378;9.688;2022-07-22T16:15:17;6.27;;;4.57;;
20609;SDS011;10463;52.378;9.688;2022-07-22T16:18:02;5.40;;;4.13;;
20609;SDS011;10463;52.378;9.688;2022-07-22T16:20:50;4.50;;;3.63;;
20609;SDS011;10463;52.378;9.688;2022-07-22T16:23:34;4.50;;;3.57;;
20609;SDS011;10463;52.378;9.688;2022-07-22T16:26:19;4.40;;;3.70;;
20609;SDS011;10463;52.378;9.688;2022-07-22T16:29:04;5.07;;;3.93;;
20609;SDS011;10463;52.378;9.688;2022-07-22T16:31:49;5.00;;;4.50;;
20609;SDS011;10463;52.378;9.688;2022-07-22T16:34:34;7.40;;;4.20;;
20609;SDS011;10463;52.378;9.688;2022-07-22T16:37:21;4.57;;;4.10;;
20609;SDS011;10463;52.378;9.688;2022-07-22T16:40:08;4.90;;;3.60;;
20609;SDS011;10463;52.378;9.688;2022-07-22T16:42:54;4.70;;;4.13;;
20609;SDS011;10463;52.378;9.688;2022-07-22T16:45:39;5.87;;;4.47;;
20609;SDS011;10463;52.378;9.688;2022-07-22T16:48:24;4.60;;;3.97;;
20609;SDS011;10463;52.378;9.688;2022-07-22T16:51:08;7.83;;;4.80;;
20609;SDS011;10463;52.378;9.688;2022-07-22T16:53:54;4.73;;;4.23;;